sensor_id;sensor_type;location;lat;lon;timestamp;temperature;humidity
20712;DHT22;10517;50.742;4.224;2023-02-28T00:01:21;0.90;99.90
20712;DHT22;10517;50.742;4.224;2023-02-28T00:03:47;0.90;99.90
20712;DHT22;10517;50.742;4.224;2023-02-28T00:06:13;0.90;99.90
20712;DHT22;10517;50.742;4.224;2023-02-28T00:08:39;0.90;99.90
20712;DHT22;10517;50.742;4.224;2023-02-28T00:11:08;0.90;99.90
20712;DHT22;10517;50.742;4.224;2023-02-28T00:13:36;1.00;99.90
20712;DHT22;10517;50.742;4.224;2023-02-28T00:16:07;0.90;99.90
20712;DHT22;10517;50.742;4.224;2023-02-28T00:18:33;0.90;99.90
20712;DHT22;10517;50.742;4.224;2023-02-28T00:20:59;0.90;99.90
20712;DHT22;10517;50.742;4.224;2023-02-28T00:23:26;0.80;99.90
20712;DHT22;10517;50.742;4.224;2023-02-28T00:25:52;0.80;99.90
20712;DHT22;10517;50.742;4.224;2023-02-28T00:28:18;0.80;99.90
20712;DHT22;10517;50.742;4.224;2023-02-28T00:30:43;0.70;99.90
20712;DHT22;10517;50.742;4.224;2023-02-28T00:33:09;0.80;99.90
20712;DHT22;10517;50.742;4.224;2023-02-28T00:35:35;0.70;99.90
20712;DHT22;10517;50.742;4.224;2023-02-28T00:38:00;0.70;99.90
20712;DHT22;10517;50.742;4.224;2023-02-28T00:40:26;0.70;99.90
20712;DHT22;10517;50.742;4.224;2023-02-28T00:42:51;0.70;99.90
20712;DHT22;10517;50.742;4.224;2023-02-28T00:45:17;0.70;99.90
20712;DHT22;10517;50.742;4.224;2023-02-28T00:47:43;0.70;99.90
20712;DHT22;10517;50.742;4.224;2023-02-28T00:50:09;0.70;99.90
20712;DHT22;10517;50.742;4.224;2023-02-28T00:52:35;0.60;99.90
20712;DHT22;10517;50.742;4.224;2023-02-28T00:55:01;0.60;99.90
20712;DHT22;10517;50.742;4.224;2023-02-28T00:57:26;0.60;99.90
20712;DHT22;10517;50.742;4.224;2023-02-28T00:59:52;0.60;99.90
20712;DHT22;10517;50.742;4.224;2023-02-28T01:02:20;0.60;99.90
20712;DHT22;10517;50.742;4.224;2023-02-28T01:04:46;0.60;99.90
20712;DHT22;10517;50.742;4.224;2023-02-28T01:07:12;0.70;99.90
20712;DHT22;10517;50.742;4.224;2023-02-28T01:09:39;0.70;99.90
20712;DHT22;10517;50.742;4.224;2023-02-28T01:12:04;0.60;99.90
20712;DHT22;10517;50.742;4.224;2023-02-28T01:14:30;0.50;99.90
20712;DHT22;10517;50.742;4.224;2023-02-28T01:16:55;0.60;99.90
20712;DHT22;10517;50.742;4.224;2023-02-28T01:19:21;0.60;99.90
20712;DHT22;10517;50.742;4.224;2023-02-28T01:21:47;0.60;99.90
20712;DHT22;10517;50.742;4.224;2023-02-28T01:24:13;0.60;99.90
20712;DHT22;10517;50.742;4.224;2023-02-28T01:26:39;0.60;99.90
20712;DHT22;10517;50.742;4.224;2023-02-28T01:29:04;0.50;99.90
20712;DHT22;10517;50.742;4.224;2023-02-28T01:31:30;0.50;99.90
20712;DHT22;10517;50.742;4.224;2023-02-28T01:33:55;0.50;99.90
20712;DHT22;10517;50.742;4.224;2023-02-28T01:36:23;0.40;99.90
20712;DHT22;10517;50.742;4.224;2023-02-28T01:38:49;0.30;99.90
20712;DHT22;10517;50.742;4.224;2023-02-28T01:41:22;0.20;99.90
20712;DHT22;10517;50.742;4.224;2023-02-28T01:46:14;0.20;99.90
20712;DHT22;10517;50.742;4.224;2023-02-28T01:49:05;0.10;99.90
20712;DHT22;10517;50.742;4.224;2023-02-28T01:54:12;0.10;99.90
20712;DHT22;10517;50.742;4.224;2023-02-28T01:56:50;0.20;99.90
20712;DHT22;10517;50.742;4.224;2023-02-28T01:59:29;0.10;99.90
20712;DHT22;10517;50.742;4.224;2023-02-28T02:01:56;0.10;99.90
20712;DHT22;10517;50.742;4.224;2023-02-28T02:04:23;0.00;99.90
20712;DHT22;10517;50.742;4.224;2023-02-28T02:06:50;0.00;99.90
20712;DHT22;10517;50.742;4.224;2023-02-28T02:09:16;-0.10;99.90
20712;DHT22;10517;50.742;4.224;2023-02-28T02:11:43;0.00;99.90
20712;DHT22;10517;50.742;4.224;2023-02-28T02:22:47;-0.10;99.90
20712;DHT22;10517;50.742;4.224;2023-02-28T02:25:29;-0.10;99.90
20712;DHT22;10517;50.742;4.224;2023-02-28T02:39:02;-0.20;99.90
20712;DHT22;10517;50.742;4.224;2023-02-28T02:44:12;-0.10;99.90
20712;DHT22;10517;50.742;4.224;2023-02-28T02:46:43;-0.10;99.90
20712;DHT22;10517;50.742;4.224;2023-02-28T02:49:14;-0.10;99.90
20712;DHT22;10517;50.742;4.224;2023-02-28T02:51:41;-0.10;99.90
20712;DHT22;10517;50.742;4.224;2023-02-28T02:54:08;-0.10;99.90
20712;DHT22;10517;50.742;4.224;2023-02-28T02:56:36;-0.20;99.90
20712;DHT22;10517;50.742;4.224;2023-02-28T02:59:07;-0.20;99.90
20712;DHT22;10517;50.742;4.224;2023-02-28T03:01:36;-0.20;99.90
20712;DHT22;10517;50.742;4.224;2023-02-28T03:04:10;-0.30;99.90
20712;DHT22;10517;50.742;4.224;2023-02-28T03:06:36;-0.30;99.90
20712;DHT22;10517;50.742;4.224;2023-02-28T03:09:02;-0.40;99.90
20712;DHT22;10517;50.742;4.224;2023-02-28T03:11:28;-0.50;99.90
20712;DHT22;10517;50.742;4.224;2023-02-28T03:14:22;-0.50;99.90
20712;DHT22;10517;50.742;4.224;2023-02-28T03:31:13;-0.70;99.90
20712;DHT22;10517;50.742;4.224;2023-02-28T03:33:45;-0.80;99.90
20712;DHT22;10517;50.742;4.224;2023-02-28T03:36:21;-0.70;99.90
20712;DHT22;10517;50.742;4.224;2023-02-28T03:38:53;-0.70;99.90
20712;DHT22;10517;50.742;4.224;2023-02-28T03:41:22;-0.80;99.90
20712;DHT22;10517;50.742;4.224;2023-02-28T03:44:01;-0.80;99.90
20712;DHT22;10517;50.742;4.224;2023-02-28T03:46:31;-0.90;99.90
20712;DHT22;10517;50.742;4.224;2023-02-28T03:49:03;-0.90;99.90
20712;DHT22;10517;50.742;4.224;2023-02-28T03:51:32;-0.90;99.90
20712;DHT22;10517;50.742;4.224;2023-02-28T03:54:02;-1.00;99.90
20712;DHT22;10517;50.742;4.224;2023-02-28T03:56:48;-1.00;99.90
20712;DHT22;10517;50.742;4.224;2023-02-28T03:59:30;-1.00;99.90
20712;DHT22;10517;50.742;4.224;2023-02-28T04:01:58;-0.90;99.90
20712;DHT22;10517;50.742;4.224;2023-02-28T04:04:24;-0.80;99.90
20712;DHT22;10517;50.742;4.224;2023-02-28T04:07:01;-0.90;99.90
20712;DHT22;10517;50.742;4.224;2023-02-28T04:09:27;-1.00;99.90
20712;DHT22;10517;50.742;4.224;2023-02-28T04:11:54;-1.00;99.90
20712;DHT22;10517;50.742;4.224;2023-02-28T04:14:21;-1.00;99.90
20712;DHT22;10517;50.742;4.224;2023-02-28T04:16:47;-1.10;99.90
20712;DHT22;10517;50.742;4.224;2023-02-28T04:19:13;-1.10;99.90
20712;DHT22;10517;50.742;4.224;2023-02-28T04:21:48;-1.10;99.90
20712;DHT22;10517;50.742;4.224;2023-02-28T04:24:17;-1.10;99.90
20712;DHT22;10517;50.742;4.224;2023-02-28T04:26:45;-1.10;99.90
20712;DHT22;10517;50.742;4.224;2023-02-28T04:29:13;-1.10;99.90
20712;DHT22;10517;50.742;4.224;2023-02-28T04:31:39;-1.10;99.90
20712;DHT22;10517;50.742;4.224;2023-02-28T04:34:05;-1.10;99.90
20712;DHT22;10517;50.742;4.224;2023-02-28T04:36:31;-1.10;99.90
20712;DHT22;10517;50.742;4.224;2023-02-28T04:38:57;-1.10;99.90
20712;DHT22;10517;50.742;4.224;2023-02-28T04:41:23;-1.10;99.90
20712;DHT22;10517;50.742;4.224;2023-02-28T04:43:48;-1.10;99.90
20712;DHT22;10517;50.742;4.224;2023-02-28T04:46:14;-1.10;99.90
20712;DHT22;10517;50.742;4.224;2023-02-28T04:48:41;-1.10;99.90
20712;DHT22;10517;50.742;4.224;2023-02-28T04:51:12;-1.10;99.90
20712;DHT22;10517;50.742;4.224;2023-02-28T04:53:39;-1.10;99.90
20712;DHT22;10517;50.742;4.224;2023-02-28T04:56:06;-1.20;99.90
20712;DHT22;10517;50.742;4.224;2023-02-28T04:58:32;-1.20;99.90
20712;DHT22;10517;50.742;4.224;2023-02-28T05:01:05;-1.10;99.90
20712;DHT22;10517;50.742;4.224;2023-02-28T05:03:41;-1.10;99.90
20712;DHT22;10517;50.742;4.224;2023-02-28T05:06:07;-1.10;99.90
20712;DHT22;10517;50.742;4.224;2023-02-28T05:08:33;-1.20;99.90
20712;DHT22;10517;50.742;4.224;2023-02-28T05:10:59;-1.20;99.90
20712;DHT22;10517;50.742;4.224;2023-02-28T05:13:26;-1.10;99.90
20712;DHT22;10517;50.742;4.224;2023-02-28T05:15:52;-1.10;99.90
20712;DHT22;10517;50.742;4.224;2023-02-28T05:18:17;-1.10;99.90
20712;DHT22;10517;50.742;4.224;2023-02-28T05:20:43;-1.10;99.90
20712;DHT22;10517;50.742;4.224;2023-02-28T05:23:11;-1.00;99.90
20712;DHT22;10517;50.742;4.224;2023-02-28T05:25:37;-1.00;99.90
20712;DHT22;10517;50.742;4.224;2023-02-28T05:28:03;-0.90;99.90
20712;DHT22;10517;50.742;4.224;2023-02-28T05:30:28;-0.90;99.90
20712;DHT22;10517;50.742;4.224;2023-02-28T05:32:55;-0.80;99.90
20712;DHT22;10517;50.742;4.224;2023-02-28T05:35:21;-0.70;99.90
20712;DHT22;10517;50.742;4.224;2023-02-28T05:37:46;-0.60;99.90
20712;DHT22;10517;50.742;4.224;2023-02-28T05:40:12;-0.60;99.90
20712;DHT22;10517;50.742;4.224;2023-02-28T05:42:38;-0.70;99.90
20712;DHT22;10517;50.742;4.224;2023-02-28T05:45:04;-0.70;99.90
20712;DHT22;10517;50.742;4.224;2023-02-28T05:47:30;-0.70;99.90
20712;DHT22;10517;50.742;4.224;2023-02-28T05:49:56;-0.70;99.90
20712;DHT22;10517;50.742;4.224;2023-02-28T05:52:22;-0.60;99.90
20712;DHT22;10517;50.742;4.224;2023-02-28T05:54:47;-0.60;99.90
20712;DHT22;10517;50.742;4.224;2023-02-28T05:57:13;-0.60;99.90
20712;DHT22;10517;50.742;4.224;2023-02-28T05:59:39;-0.50;99.90
20712;DHT22;10517;50.742;4.224;2023-02-28T06:02:06;-0.50;99.90
20712;DHT22;10517;50.742;4.224;2023-02-28T06:04:33;-0.50;99.90
20712;DHT22;10517;50.742;4.224;2023-02-28T06:06:59;-0.50;99.90
20712;DHT22;10517;50.742;4.224;2023-02-28T06:09:25;-0.40;99.90
20712;DHT22;10517;50.742;4.224;2023-02-28T06:11:50;-0.40;99.90
20712;DHT22;10517;50.742;4.224;2023-02-28T06:14:17;-0.30;99.90
20712;DHT22;10517;50.742;4.224;2023-02-28T06:16:43;-0.20;99.90
20712;DHT22;10517;50.742;4.224;2023-02-28T06:19:09;-0.20;99.90
20712;DHT22;10517;50.742;4.224;2023-02-28T06:21:36;-0.20;99.90
20712;DHT22;10517;50.742;4.224;2023-02-28T06:24:02;-0.10;99.90
20712;DHT22;10517;50.742;4.224;2023-02-28T06:26:28;-0.20;99.90
20712;DHT22;10517;50.742;4.224;2023-02-28T06:28:54;-0.10;99.90
20712;DHT22;10517;50.742;4.224;2023-02-28T06:31:20;-0.10;99.90
20712;DHT22;10517;50.742;4.224;2023-02-28T06:33:46;0.00;99.90
20712;DHT22;10517;50.742;4.224;2023-02-28T06:36:13;0.00;99.90
20712;DHT22;10517;50.742;4.224;2023-02-28T06:38:40;0.00;99.90
20712;DHT22;10517;50.742;4.224;2023-02-28T06:41:06;0.10;99.90
20712;DHT22;10517;50.742;4.224;2023-02-28T06:43:36;0.20;99.90
20712;DHT22;10517;50.742;4.224;2023-02-28T06:46:05;0.30;99.90
20712;DHT22;10517;50.742;4.224;2023-02-28T06:48:31;0.60;99.90
20712;DHT22;10517;50.742;4.224;2023-02-28T06:51:09;0.60;99.90
20712;DHT22;10517;50.742;4.224;2023-02-28T06:53:35;0.60;99.90
20712;DHT22;10517;50.742;4.224;2023-02-28T06:56:07;0.60;99.90
20712;DHT22;10517;50.742;4.224;2023-02-28T06:58:34;0.60;99.90
20712;DHT22;10517;50.742;4.224;2023-02-28T07:01:00;0.60;99.90
20712;DHT22;10517;50.742;4.224;2023-02-28T07:03:26;0.70;99.90
20712;DHT22;10517;50.742;4.224;2023-02-28T07:05:51;0.80;99.90
20712;DHT22;10517;50.742;4.224;2023-02-28T07:08:17;0.90;99.90
20712;DHT22;10517;50.742;4.224;2023-02-28T07:10:43;0.90;99.90
20712;DHT22;10517;50.742;4.224;2023-02-28T07:13:09;0.90;99.90
20712;DHT22;10517;50.742;4.224;2023-02-28T07:15:37;0.90;99.90
20712;DHT22;10517;50.742;4.224;2023-02-28T07:18:03;0.90;99.90
20712;DHT22;10517;50.742;4.224;2023-02-28T07:20:28;0.90;99.90
20712;DHT22;10517;50.742;4.224;2023-02-28T07:22:54;0.90;99.90
20712;DHT22;10517;50.742;4.224;2023-02-28T07:25:23;1.00;99.90
20712;DHT22;10517;50.742;4.224;2023-02-28T07:27:49;1.00;99.90
20712;DHT22;10517;50.742;4.224;2023-02-28T07:30:15;1.00;99.90
20712;DHT22;10517;50.742;4.224;2023-02-28T07:32:41;1.00;99.90
20712;DHT22;10517;50.742;4.224;2023-02-28T07:35:07;1.00;99.90
20712;DHT22;10517;50.742;4.224;2023-02-28T07:37:32;1.20;99.90
20712;DHT22;10517;50.742;4.224;2023-02-28T07:40:06;1.30;99.90
20712;DHT22;10517;50.742;4.224;2023-02-28T07:42:34;1.40;99.90
20712;DHT22;10517;50.742;4.224;2023-02-28T07:45:00;1.40;99.90
20712;DHT22;10517;50.742;4.224;2023-02-28T07:47:26;1.50;99.90
20712;DHT22;10517;50.742;4.224;2023-02-28T07:49:51;1.50;99.90
20712;DHT22;10517;50.742;4.224;2023-02-28T07:52:17;1.50;99.90
20712;DHT22;10517;50.742;4.224;2023-02-28T07:54:42;1.50;99.90
20712;DHT22;10517;50.742;4.224;2023-02-28T07:57:08;1.40;99.90
20712;DHT22;10517;50.742;4.224;2023-02-28T07:59:34;1.40;99.90
20712;DHT22;10517;50.742;4.224;2023-02-28T08:01:59;1.40;99.90
20712;DHT22;10517;50.742;4.224;2023-02-28T08:04:25;1.50;99.90
20712;DHT22;10517;50.742;4.224;2023-02-28T08:06:50;1.60;99.90
20712;DHT22;10517;50.742;4.224;2023-02-28T08:09:19;1.70;99.90
20712;DHT22;10517;50.742;4.224;2023-02-28T08:11:45;1.70;99.90
20712;DHT22;10517;50.742;4.224;2023-02-28T08:14:11;1.80;99.90
20712;DHT22;10517;50.742;4.224;2023-02-28T08:16:36;1.90;99.90
20712;DHT22;10517;50.742;4.224;2023-02-28T08:19:02;2.00;99.90
20712;DHT22;10517;50.742;4.224;2023-02-28T08:21:28;2.10;99.90
20712;DHT22;10517;50.742;4.224;2023-02-28T08:23:53;2.10;99.90
20712;DHT22;10517;50.742;4.224;2023-02-28T08:26:19;2.20;99.90
20712;DHT22;10517;50.742;4.224;2023-02-28T08:28:45;2.20;99.90
20712;DHT22;10517;50.742;4.224;2023-02-28T08:31:13;2.30;99.90
20712;DHT22;10517;50.742;4.224;2023-02-28T08:33:40;2.40;99.90
20712;DHT22;10517;50.742;4.224;2023-02-28T08:36:07;2.40;99.90
20712;DHT22;10517;50.742;4.224;2023-02-28T08:38:33;2.50;99.90
20712;DHT22;10517;50.742;4.224;2023-02-28T08:41:01;2.60;99.90
20712;DHT22;10517;50.742;4.224;2023-02-28T08:43:27;2.40;99.90
20712;DHT22;10517;50.742;4.224;2023-02-28T08:45:57;2.50;99.90
20712;DHT22;10517;50.742;4.224;2023-02-28T08:48:23;2.60;99.90
20712;DHT22;10517;50.742;4.224;2023-02-28T08:53:22;2.70;99.90
20712;DHT22;10517;50.742;4.224;2023-02-28T08:55:58;2.80;99.90
20712;DHT22;10517;50.742;4.224;2023-02-28T08:58:24;2.90;99.90
20712;DHT22;10517;50.742;4.224;2023-02-28T09:00:51;2.70;99.90
20712;DHT22;10517;50.742;4.224;2023-02-28T09:03:16;2.70;99.90
20712;DHT22;10517;50.742;4.224;2023-02-28T09:06:00;2.80;99.90
20712;DHT22;10517;50.742;4.224;2023-02-28T09:08:29;3.10;99.90
20712;DHT22;10517;50.742;4.224;2023-02-28T09:10:55;3.10;99.90
20712;DHT22;10517;50.742;4.224;2023-02-28T09:13:23;3.20;99.90
20712;DHT22;10517;50.742;4.224;2023-02-28T09:15:49;3.10;99.90
20712;DHT22;10517;50.742;4.224;2023-02-28T09:18:15;3.10;99.90
20712;DHT22;10517;50.742;4.224;2023-02-28T09:20:42;3.30;99.90
20712;DHT22;10517;50.742;4.224;2023-02-28T09:23:08;3.30;99.90
20712;DHT22;10517;50.742;4.224;2023-02-28T09:25:34;3.30;99.90
20712;DHT22;10517;50.742;4.224;2023-02-28T09:28:00;3.50;99.90
20712;DHT22;10517;50.742;4.224;2023-02-28T09:30:26;3.50;99.90
20712;DHT22;10517;50.742;4.224;2023-02-28T09:32:52;3.60;99.90
20712;DHT22;10517;50.742;4.224;2023-02-28T09:35:20;3.60;99.90
20712;DHT22;10517;50.742;4.224;2023-02-28T09:37:47;3.40;99.90
20712;DHT22;10517;50.742;4.224;2023-02-28T09:40:13;3.30;99.90
20712;DHT22;10517;50.742;4.224;2023-02-28T09:42:40;3.30;99.90
20712;DHT22;10517;50.742;4.224;2023-02-28T09:45:22;3.40;99.90
20712;DHT22;10517;50.742;4.224;2023-02-28T09:47:51;3.50;99.90
20712;DHT22;10517;50.742;4.224;2023-02-28T09:50:38;3.50;99.90
20712;DHT22;10517;50.742;4.224;2023-02-28T09:53:15;3.50;99.90
20712;DHT22;10517;50.742;4.224;2023-02-28T09:55:53;3.30;99.90
20712;DHT22;10517;50.742;4.224;2023-02-28T10:01:09;3.20;99.90
20712;DHT22;10517;50.742;4.224;2023-02-28T10:03:43;3.30;99.90
20712;DHT22;10517;50.742;4.224;2023-02-28T10:06:20;3.50;99.90
20712;DHT22;10517;50.742;4.224;2023-02-28T10:09:19;3.80;99.90
20712;DHT22;10517;50.742;4.224;2023-02-28T10:11:48;3.90;99.90
20712;DHT22;10517;50.742;4.224;2023-02-28T10:14:22;3.90;99.90
20712;DHT22;10517;50.742;4.224;2023-02-28T10:16:51;3.80;99.90
20712;DHT22;10517;50.742;4.224;2023-02-28T10:20:19;3.90;99.90
20712;DHT22;10517;50.742;4.224;2023-02-28T10:22:25;4.40;99.90
20712;DHT22;10517;50.742;4.224;2023-02-28T10:24:55;4.30;99.90
20712;DHT22;10517;50.742;4.224;2023-02-28T10:27:29;4.20;99.90
20712;DHT22;10517;50.742;4.224;2023-02-28T10:29:57;4.00;99.90
20712;DHT22;10517;50.742;4.224;2023-02-28T10:32:28;3.80;99.90
20712;DHT22;10517;50.742;4.224;2023-02-28T10:35:07;3.70;99.90
20712;DHT22;10517;50.742;4.224;2023-02-28T10:37:42;3.80;99.90
20712;DHT22;10517;50.742;4.224;2023-02-28T10:45:20;4.20;99.90
20712;DHT22;10517;50.742;4.224;2023-02-28T10:47:52;4.30;99.90
20712;DHT22;10517;50.742;4.224;2023-02-28T10:50:28;4.60;99.90
20712;DHT22;10517;50.742;4.224;2023-02-28T10:52:54;4.60;99.90
20712;DHT22;10517;50.742;4.224;2023-02-28T10:55:25;4.90;99.90
20712;DHT22;10517;50.742;4.224;2023-02-28T10:57:51;4.90;99.90
20712;DHT22;10517;50.742;4.224;2023-02-28T11:00:25;4.60;99.90
20712;DHT22;10517;50.742;4.224;2023-02-28T11:02:52;4.50;99.90
20712;DHT22;10517;50.742;4.224;2023-02-28T11:05:26;4.40;99.90
20712;DHT22;10517;50.742;4.224;2023-02-28T11:08:14;4.60;99.90
20712;DHT22;10517;50.742;4.224;2023-02-28T11:10:46;4.60;99.90
20712;DHT22;10517;50.742;4.224;2023-02-28T11:13:17;4.60;99.90
20712;DHT22;10517;50.742;4.224;2023-02-28T11:15:51;4.60;99.90
20712;DHT22;10517;50.742;4.224;2023-02-28T11:21:03;4.70;99.90
20712;DHT22;10517;50.742;4.224;2023-02-28T11:23:32;5.00;99.90
20712;DHT22;10517;50.742;4.224;2023-02-28T11:26:00;5.30;99.90
20712;DHT22;10517;50.742;4.224;2023-02-28T11:28:32;5.10;99.90
20712;DHT22;10517;50.742;4.224;2023-02-28T11:31:05;4.70;99.90
20712;DHT22;10517;50.742;4.224;2023-02-28T11:33:40;4.90;99.90
20712;DHT22;10517;50.742;4.224;2023-02-28T11:36:14;5.10;99.90
20712;DHT22;10517;50.742;4.224;2023-02-28T11:38:40;5.00;99.90
20712;DHT22;10517;50.742;4.224;2023-02-28T11:51:55;4.70;99.90
20712;DHT22;10517;50.742;4.224;2023-02-28T11:57:15;5.00;99.90
20712;DHT22;10517;50.742;4.224;2023-02-28T12:02:28;5.70;99.90
20712;DHT22;10517;50.742;4.224;2023-02-28T12:10:25;5.70;99.90
20712;DHT22;10517;50.742;4.224;2023-02-28T12:19:09;4.90;99.90
20712;DHT22;10517;50.742;4.224;2023-02-28T12:24:26;5.00;99.90
20712;DHT22;10517;50.742;4.224;2023-02-28T12:26:55;5.10;99.90
20712;DHT22;10517;50.742;4.224;2023-02-28T12:29:29;5.20;99.90
20712;DHT22;10517;50.742;4.224;2023-02-28T12:32:18;5.60;99.90
20712;DHT22;10517;50.742;4.224;2023-02-28T12:35:13;5.60;99.90
20712;DHT22;10517;50.742;4.224;2023-02-28T12:37:59;5.20;99.90
20712;DHT22;10517;50.742;4.224;2023-02-28T12:40:44;5.20;99.90
20712;DHT22;10517;50.742;4.224;2023-02-28T12:43:13;5.10;99.90
20712;DHT22;10517;50.742;4.224;2023-02-28T12:45:58;5.60;99.90
20712;DHT22;10517;50.742;4.224;2023-02-28T12:51:00;6.00;99.90
20712;DHT22;10517;50.742;4.224;2023-02-28T12:53:33;5.90;99.90
20712;DHT22;10517;50.742;4.224;2023-02-28T12:59:01;5.30;99.90
20712;DHT22;10517;50.742;4.224;2023-02-28T13:10:23;6.40;99.90
20712;DHT22;10517;50.742;4.224;2023-02-28T13:12:51;6.50;99.90
20712;DHT22;10517;50.742;4.224;2023-02-28T13:15:19;6.50;99.90
20712;DHT22;10517;50.742;4.224;2023-02-28T13:18:03;7.00;99.90
20712;DHT22;10517;50.742;4.224;2023-02-28T13:20:35;7.00;99.90
20712;DHT22;10517;50.742;4.224;2023-02-28T13:23:01;7.40;99.90
20712;DHT22;10517;50.742;4.224;2023-02-28T13:28:00;7.10;99.90
20712;DHT22;10517;50.742;4.224;2023-02-28T13:33:37;7.10;99.90
20712;DHT22;10517;50.742;4.224;2023-02-28T13:39:44;7.40;99.90
20712;DHT22;10517;50.742;4.224;2023-02-28T13:41:44;7.60;99.90
20712;DHT22;10517;50.742;4.224;2023-02-28T13:44:13;7.70;99.90
20712;DHT22;10517;50.742;4.224;2023-02-28T13:49:33;8.10;99.90
20712;DHT22;10517;50.742;4.224;2023-02-28T13:57:58;9.90;99.90
20712;DHT22;10517;50.742;4.224;2023-02-28T14:17:55;9.60;99.90
20712;DHT22;10517;50.742;4.224;2023-02-28T14:20:22;9.40;99.90
20712;DHT22;10517;50.742;4.224;2023-02-28T14:25:40;9.30;99.90
20712;DHT22;10517;50.742;4.224;2023-02-28T14:28:19;9.70;99.90
20712;DHT22;10517;50.742;4.224;2023-02-28T14:31:02;9.80;99.90
20712;DHT22;10517;50.742;4.224;2023-02-28T14:38:51;10.00;99.90
20712;DHT22;10517;50.742;4.224;2023-02-28T14:41:24;9.70;99.90
20712;DHT22;10517;50.742;4.224;2023-02-28T14:43:57;10.20;99.90
20712;DHT22;10517;50.742;4.224;2023-02-28T14:46:27;10.40;99.90
20712;DHT22;10517;50.742;4.224;2023-02-28T14:48:54;10.40;99.90
20712;DHT22;10517;50.742;4.224;2023-02-28T14:51:21;10.00;99.90
20712;DHT22;10517;50.742;4.224;2023-02-28T14:53:51;10.20;99.90
20712;DHT22;10517;50.742;4.224;2023-02-28T14:56:21;11.20;99.90
20712;DHT22;10517;50.742;4.224;2023-02-28T14:58:52;11.20;99.60
20712;DHT22;10517;50.742;4.224;2023-02-28T15:01:20;11.90;99.20
20712;DHT22;10517;50.742;4.224;2023-02-28T15:03:47;12.40;98.10
20712;DHT22;10517;50.742;4.224;2023-02-28T15:06:15;11.70;98.10
20712;DHT22;10517;50.742;4.224;2023-02-28T15:08:43;10.80;97.90
20712;DHT22;10517;50.742;4.224;2023-02-28T15:11:14;10.70;98.30
20712;DHT22;10517;50.742;4.224;2023-02-28T15:13:52;10.30;98.50
20712;DHT22;10517;50.742;4.224;2023-02-28T15:21:32;9.90;98.80
20712;DHT22;10517;50.742;4.224;2023-02-28T15:24:07;11.10;98.60
20712;DHT22;10517;50.742;4.224;2023-02-28T15:26:39;11.90;98.10
20712;DHT22;10517;50.742;4.224;2023-02-28T15:29:13;12.50;97.70
20712;DHT22;10517;50.742;4.224;2023-02-28T15:31:44;13.30;96.90
20712;DHT22;10517;50.742;4.224;2023-02-28T15:34:22;13.50;95.70
20712;DHT22;10517;50.742;4.224;2023-02-28T15:36:51;13.30;95.10
20712;DHT22;10517;50.742;4.224;2023-02-28T15:39:25;13.00;94.70
20712;DHT22;10517;50.742;4.224;2023-02-28T15:42:09;12.40;94.80
20712;DHT22;10517;50.742;4.224;2023-02-28T15:44:36;11.90;95.20
20712;DHT22;10517;50.742;4.224;2023-02-28T15:47:11;10.40;95.50
20712;DHT22;10517;50.742;4.224;2023-02-28T15:49:54;9.60;97.00
20712;DHT22;10517;50.742;4.224;2023-02-28T15:52:44;8.80;98.00
20712;DHT22;10517;50.742;4.224;2023-02-28T15:55:20;8.60;98.20
20712;DHT22;10517;50.742;4.224;2023-02-28T15:57:50;8.60;98.20
20712;DHT22;10517;50.742;4.224;2023-02-28T16:00:20;8.30;98.20
20712;DHT22;10517;50.742;4.224;2023-02-28T16:02:46;7.70;99.20
20712;DHT22;10517;50.742;4.224;2023-02-28T16:05:18;7.20;99.90
20712;DHT22;10517;50.742;4.224;2023-02-28T16:07:45;6.80;99.90
20712;DHT22;10517;50.742;4.224;2023-02-28T16:10:13;6.30;99.90
20712;DHT22;10517;50.742;4.224;2023-02-28T16:12:42;6.10;99.90
20712;DHT22;10517;50.742;4.224;2023-02-28T16:15:27;6.00;99.90
20712;DHT22;10517;50.742;4.224;2023-02-28T16:17:54;6.00;99.90
20712;DHT22;10517;50.742;4.224;2023-02-28T16:20:23;6.00;99.90
20712;DHT22;10517;50.742;4.224;2023-02-28T16:22:49;5.90;99.90
20712;DHT22;10517;50.742;4.224;2023-02-28T16:25:16;5.80;99.90
20712;DHT22;10517;50.742;4.224;2023-02-28T16:27:43;5.80;99.90
20712;DHT22;10517;50.742;4.224;2023-02-28T16:30:23;5.70;99.90
20712;DHT22;10517;50.742;4.224;2023-02-28T16:32:50;5.60;99.90
20712;DHT22;10517;50.742;4.224;2023-02-28T16:35:17;5.50;99.90
20712;DHT22;10517;50.742;4.224;2023-02-28T16:37:43;5.40;99.90
20712;DHT22;10517;50.742;4.224;2023-02-28T16:40:24;5.40;99.90
20712;DHT22;10517;50.742;4.224;2023-02-28T16:42:52;5.40;99.90
20712;DHT22;10517;50.742;4.224;2023-02-28T16:45:22;5.30;99.90
20712;DHT22;10517;50.742;4.224;2023-02-28T16:47:48;5.40;99.90
20712;DHT22;10517;50.742;4.224;2023-02-28T16:50:31;5.40;99.90
20712;DHT22;10517;50.742;4.224;2023-02-28T16:52:59;5.20;99.90
20712;DHT22;10517;50.742;4.224;2023-02-28T16:55:26;5.10;99.90
20712;DHT22;10517;50.742;4.224;2023-02-28T16:57:55;5.00;99.90
20712;DHT22;10517;50.742;4.224;2023-02-28T17:00:21;4.90;99.90
20712;DHT22;10517;50.742;4.224;2023-02-28T17:02:47;4.90;99.90
20712;DHT22;10517;50.742;4.224;2023-02-28T17:05:13;4.90;99.90
20712;DHT22;10517;50.742;4.224;2023-02-28T17:07:42;4.90;99.90
20712;DHT22;10517;50.742;4.224;2023-02-28T17:10:20;4.90;99.90
20712;DHT22;10517;50.742;4.224;2023-02-28T17:12:46;4.80;99.90
20712;DHT22;10517;50.742;4.224;2023-02-28T17:15:13;4.70;99.90
20712;DHT22;10517;50.742;4.224;2023-02-28T17:17:40;4.70;99.90
20712;DHT22;10517;50.742;4.224;2023-02-28T17:20:07;4.60;99.90
20712;DHT22;10517;50.742;4.224;2023-02-28T17:22:36;4.50;99.90
20712;DHT22;10517;50.742;4.224;2023-02-28T17:25:01;4.50;99.90
20712;DHT22;10517;50.742;4.224;2023-02-28T17:27:27;4.50;99.90
20712;DHT22;10517;50.742;4.224;2023-02-28T17:29:53;4.50;99.90
20712;DHT22;10517;50.742;4.224;2023-02-28T17:32:18;4.50;99.90
20712;DHT22;10517;50.742;4.224;2023-02-28T17:34:44;4.40;99.90
20712;DHT22;10517;50.742;4.224;2023-02-28T17:37:11;4.30;99.90
20712;DHT22;10517;50.742;4.224;2023-02-28T17:39:36;4.30;99.90
20712;DHT22;10517;50.742;4.224;2023-02-28T17:42:02;4.30;99.90
20712;DHT22;10517;50.742;4.224;2023-02-28T17:44:28;4.20;99.90
20712;DHT22;10517;50.742;4.224;2023-02-28T17:46:54;4.20;99.90
20712;DHT22;10517;50.742;4.224;2023-02-28T17:49:21;4.10;99.90
20712;DHT22;10517;50.742;4.224;2023-02-28T17:51:47;4.00;99.90
20712;DHT22;10517;50.742;4.224;2023-02-28T17:54:13;4.10;99.90
20712;DHT22;10517;50.742;4.224;2023-02-28T17:56:40;4.00;99.90
20712;DHT22;10517;50.742;4.224;2023-02-28T17:59:06;3.90;99.90
20712;DHT22;10517;50.742;4.224;2023-02-28T18:01:33;3.90;99.90
20712;DHT22;10517;50.742;4.224;2023-02-28T18:03:59;3.90;99.90
20712;DHT22;10517;50.742;4.224;2023-02-28T18:06:39;3.80;99.90
20712;DHT22;10517;50.742;4.224;2023-02-28T18:09:16;3.80;99.90
20712;DHT22;10517;50.742;4.224;2023-02-28T18:11:42;3.80;99.90
20712;DHT22;10517;50.742;4.224;2023-02-28T18:14:11;3.80;99.90
20712;DHT22;10517;50.742;4.224;2023-02-28T18:16:37;3.80;99.90
20712;DHT22;10517;50.742;4.224;2023-02-28T18:19:03;3.70;99.90
20712;DHT22;10517;50.742;4.224;2023-02-28T18:21:29;3.70;99.90
20712;DHT22;10517;50.742;4.224;2023-02-28T18:23:55;3.70;99.90